createdAt,value
2022-12-23T00:01:17.990Z,5.10
2022-12-23T00:03:45.023Z,4.75
2022-12-23T00:06:14.585Z,4.00
2022-12-23T00:08:42.393Z,5.78
2022-12-23T00:11:14.716Z,4.93
2022-12-23T00:16:26.980Z,5.65
2022-12-23T00:18:54.605Z,4.07
2022-12-23T00:21:22.071Z,4.90
2022-12-23T00:23:50.840Z,7.20
2022-12-23T00:26:24.254Z,8.30
2022-12-23T00:28:51.482Z,4.50
2022-12-23T00:31:19.958Z,8.23
2022-12-23T00:33:50.163Z,9.27
2022-12-23T00:36:27.721Z,5.63
2022-12-23T00:39:13.881Z,5.65
2022-12-23T00:41:59.381Z,9.57
2022-12-23T00:44:26.514Z,7.72
2022-12-23T00:46:53.570Z,8.32
2022-12-23T00:49:39.823Z,8.23
2022-12-23T00:52:09.496Z,5.32
2022-12-23T00:54:36.584Z,8.27
2022-12-23T00:57:04.246Z,3.47
2022-12-23T00:59:31.073Z,4.53
2022-12-23T01:02:16.291Z,6.03
2022-12-23T01:05:01.781Z,6.85
2022-12-23T01:07:28.773Z,6.40
2022-12-23T01:09:55.616Z,6.15
2022-12-23T01:12:22.384Z,8.43
2022-12-23T01:14:49.199Z,8.57
2022-12-23T01:17:16.509Z,6.70
2022-12-23T01:19:43.642Z,6.30
2022-12-23T01:22:10.492Z,7.82
2022-12-23T01:24:37.294Z,9.27
2022-12-23T01:27:04.024Z,7.50
2022-12-23T01:29:30.923Z,10.75
2022-12-23T01:31:58.109Z,6.97
2022-12-23T01:34:25.998Z,8.63
2022-12-23T01:36:55.391Z,7.80
2022-12-23T01:39:22.183Z,8.75
2022-12-23T01:42:07.374Z,8.80
2022-12-23T01:44:48.853Z,6.68
2022-12-23T01:47:44.564Z,7.00
2022-12-23T01:50:32.669Z,9.30
2022-12-23T01:53:14.604Z,6.88
2022-12-23T01:55:47.282Z,5.13
2022-12-23T01:58:28.674Z,5.57
2022-12-23T02:01:16.421Z,4.70
2022-12-23T02:03:45.372Z,6.85
2022-12-23T02:06:42.654Z,5.90
2022-12-23T02:09:19.443Z,5.65
2022-12-23T02:12:14.739Z,4.40
2022-12-23T02:15:30.876Z,5.40
2022-12-23T02:18:32.758Z,7.32
2022-12-23T02:21:14.794Z,7.78
2022-12-23T02:23:47.223Z,5.13
2022-12-23T02:26:28.990Z,4.05
2022-12-23T02:29:18.641Z,5.95
2022-12-23T02:32:05.197Z,6.10
2022-12-23T02:34:49.808Z,3.08
2022-12-23T02:37:42.296Z,4.45
2022-12-23T02:40:24.649Z,2.53
2022-12-23T02:42:59.282Z,3.33
2022-12-23T02:45:39.737Z,4.25
2022-12-23T02:48:22.311Z,4.32
2022-12-23T02:53:32.471Z,3.65
2022-12-23T02:56:02.078Z,4.05
2022-12-23T02:58:33.835Z,4.95
2022-12-23T03:01:01.886Z,4.00
2022-12-23T03:03:29.315Z,5.53
2022-12-23T03:05:56.617Z,4.90
2022-12-23T03:08:31.092Z,4.93
2022-12-23T03:11:15.256Z,6.20
2022-12-23T03:14:10.054Z,5.63
2022-12-23T03:17:13.897Z,6.43
2022-12-23T03:19:45.403Z,4.78
2022-12-23T03:22:15.177Z,6.80
2022-12-23T03:25:03.005Z,6.38
2022-12-23T03:27:43.111Z,3.75
2022-12-23T03:30:17.023Z,6.10
2022-12-23T03:32:48.304Z,6.97
2022-12-23T03:35:20.163Z,6.53
2022-12-23T03:37:50.620Z,6.32
2022-12-23T03:40:22.716Z,6.25
2022-12-23T03:42:56.735Z,5.97
2022-12-23T03:45:40.710Z,5.50
2022-12-23T03:48:24.106Z,5.70
2022-12-23T03:50:56.810Z,6.25
2022-12-23T03:53:34.830Z,7.68
2022-12-23T03:56:09.819Z,6.63
2022-12-23T03:58:52.784Z,5.85
2022-12-23T04:01:44.717Z,6.57
2022-12-23T04:04:26.520Z,7.03
2022-12-23T04:07:17.429Z,6.43
2022-12-23T04:09:44.946Z,6.50
2022-12-23T04:12:13.827Z,6.70
2022-12-23T04:14:48.193Z,7.07
2022-12-23T04:17:15.949Z,6.85
2022-12-23T04:19:45.461Z,7.20
2022-12-23T04:22:13.850Z,6.70
2022-12-23T04:24:40.665Z,6.85
2022-12-23T04:27:09.823Z,7.10
2022-12-23T04:29:36.615Z,6.60
2022-12-23T04:32:03.511Z,7.43
2022-12-23T04:34:30.354Z,7.63
2022-12-23T04:36:57.297Z,8.40
2022-12-23T04:39:24.300Z,8.70
2022-12-23T04:41:51.546Z,7.53
2022-12-23T04:44:18.403Z,7.68
2022-12-23T04:46:45.435Z,8.20
2022-12-23T04:49:12.283Z,7.47
2022-12-23T04:51:39.080Z,6.88
2022-12-23T04:54:05.869Z,7.78
2022-12-23T04:56:32.616Z,7.40
2022-12-23T04:59:02.264Z,7.40
2022-12-23T05:01:29.772Z,7.13
2022-12-23T05:03:56.685Z,7.70
2022-12-23T05:06:23.559Z,8.68
2022-12-23T05:08:50.354Z,8.88
2022-12-23T05:11:17.143Z,8.40
2022-12-23T05:13:43.935Z,5.63
2022-12-23T05:16:10.880Z,8.50
2022-12-23T05:18:39.012Z,7.70
2022-12-23T05:21:05.812Z,7.55
2022-12-23T05:23:32.849Z,7.35
2022-12-23T05:25:59.665Z,8.07
2022-12-23T05:28:26.406Z,7.30
2022-12-23T05:31:05.290Z,8.30
2022-12-23T05:33:35.405Z,8.02
2022-12-23T05:36:02.628Z,8.63
2022-12-23T05:38:29.668Z,8.23
2022-12-23T05:40:56.697Z,9.63
2022-12-23T05:43:24.074Z,9.68
2022-12-23T05:45:51.536Z,10.27
2022-12-23T05:48:18.419Z,10.65
2022-12-23T05:50:45.272Z,10.07
2022-12-23T05:53:12.008Z,10.02
2022-12-23T05:55:38.847Z,9.70
2022-12-23T05:58:05.814Z,10.18
2022-12-23T06:00:32.685Z,10.63
2022-12-23T06:02:59.590Z,10.43
2022-12-23T06:05:26.636Z,10.52
2022-12-23T06:07:53.418Z,9.98
2022-12-23T06:10:20.231Z,9.50
2022-12-23T06:12:46.952Z,9.75
2022-12-23T06:15:13.844Z,9.88
2022-12-23T06:17:40.646Z,10.73
2022-12-23T06:20:08.501Z,9.20
2022-12-23T06:22:35.294Z,10.48
2022-12-23T06:25:02.151Z,9.70
2022-12-23T06:27:29.043Z,10.77
2022-12-23T06:29:56.241Z,10.00
2022-12-23T06:32:22.994Z,9.82
2022-12-23T06:34:53.273Z,10.27
2022-12-23T06:37:23.154Z,10.95
2022-12-23T06:39:49.957Z,9.82
2022-12-23T06:42:16.743Z,10.10
2022-12-23T06:44:43.541Z,10.15
2022-12-23T06:47:10.424Z,10.23
2022-12-23T06:49:37.170Z,9.68
2022-12-23T06:52:04.195Z,12.07
2022-12-23T06:54:31.228Z,12.50
2022-12-23T06:56:58.111Z,11.57
2022-12-23T06:59:24.954Z,11.75
2022-12-23T07:01:51.813Z,11.05
2022-12-23T07:04:18.587Z,11.98
2022-12-23T07:06:46.542Z,11.13
2022-12-23T07:09:14.487Z,10.75
2022-12-23T07:11:41.326Z,11.43
2022-12-23T07:14:08.167Z,10.32
2022-12-23T07:16:35.027Z,11.05
2022-12-23T07:19:01.887Z,11.15
2022-12-23T07:21:30.000Z,11.93
2022-12-23T07:23:57.067Z,12.10
2022-12-23T07:26:23.959Z,13.02
2022-12-23T07:28:50.750Z,12.68
2022-12-23T07:31:17.504Z,13.50
2022-12-23T07:33:44.656Z,14.05
2022-12-23T07:36:11.538Z,14.23
2022-12-23T07:38:38.393Z,13.75
2022-12-23T07:41:05.357Z,13.60
2022-12-23T07:43:32.270Z,12.57
2022-12-23T07:46:00.633Z,13.00
2022-12-23T07:48:28.212Z,12.75
2022-12-23T07:51:01.398Z,12.07
2022-12-23T07:53:28.403Z,12.32
2022-12-23T07:55:56.777Z,13.10
2022-12-23T07:58:24.190Z,13.23
2022-12-23T08:00:50.990Z,13.05
2022-12-23T08:03:17.987Z,13.20
2022-12-23T08:05:44.894Z,14.52
2022-12-23T08:08:11.989Z,13.35
2022-12-23T08:10:44.421Z,14.27
2022-12-23T08:13:14.716Z,14.63
2022-12-23T08:15:41.557Z,13.68
2022-12-23T08:18:08.268Z,13.35
2022-12-23T08:20:34.989Z,13.18
2022-12-23T08:23:01.741Z,13.75
2022-12-23T08:25:28.540Z,13.52
2022-12-23T08:27:55.303Z,14.00
2022-12-23T08:30:22.096Z,14.23
2022-12-23T08:32:50.014Z,14.15
2022-12-23T08:35:16.910Z,14.00
2022-12-23T08:37:43.751Z,14.65
2022-12-23T08:40:11.724Z,14.88
2022-12-23T08:42:38.616Z,16.00
2022-12-23T08:45:05.558Z,16.05
2022-12-23T08:47:32.299Z,16.20
2022-12-23T08:49:59.161Z,16.20
2022-12-23T08:52:25.940Z,15.55
2022-12-23T08:54:53.648Z,16.67
2022-12-23T08:57:20.429Z,16.70
2022-12-23T08:59:48.357Z,18.55
2022-12-23T09:02:15.248Z,16.45
2022-12-23T09:04:42.253Z,18.38
2022-12-23T09:07:09.125Z,17.02
2022-12-23T09:09:38.288Z,17.90
2022-12-23T09:12:05.224Z,17.17
2022-12-23T09:14:32.075Z,17.50
2022-12-23T09:16:58.895Z,17.17
2022-12-23T09:19:25.669Z,17.38
2022-12-23T09:21:52.503Z,17.30
2022-12-23T09:24:19.243Z,16.15
2022-12-23T09:26:46.139Z,16.73
2022-12-23T09:29:12.907Z,16.08
2022-12-23T09:31:39.725Z,16.50
2022-12-23T09:34:06.888Z,17.42
2022-12-23T09:36:33.979Z,17.15
2022-12-23T09:39:00.863Z,17.55
2022-12-23T09:41:46.353Z,17.70
2022-12-23T09:44:57.117Z,16.73
2022-12-23T09:47:26.480Z,15.98
2022-12-23T09:49:58.948Z,15.90
2022-12-23T09:52:47.038Z,16.48
2022-12-23T09:55:15.077Z,16.10
2022-12-23T09:57:47.646Z,15.23
2022-12-23T10:00:18.165Z,14.90
2022-12-23T10:03:19.175Z,14.95
2022-12-23T10:05:56.240Z,14.10
2022-12-23T10:08:34.294Z,12.98
2022-12-23T10:11:28.220Z,14.10
2022-12-23T10:14:03.313Z,15.85
2022-12-23T10:16:38.766Z,14.82
2022-12-23T10:19:41.664Z,14.85
2022-12-23T10:24:48.346Z,11.68
2022-12-23T10:27:37.085Z,12.82
2022-12-23T10:33:19.322Z,11.57
2022-12-23T10:36:09.641Z,10.23
2022-12-23T10:38:55.665Z,10.73
2022-12-23T10:41:53.875Z,10.80
2022-12-23T10:44:50.518Z,10.63
2022-12-23T10:47:57.338Z,12.43
2022-12-23T10:50:46.181Z,13.63
2022-12-23T10:53:24.471Z,13.70
2022-12-23T10:55:51.432Z,14.90
2022-12-23T10:58:19.401Z,15.80
2022-12-23T11:00:52.435Z,14.82
2022-12-23T11:03:36.581Z,16.88
2022-12-23T11:06:06.124Z,16.52
2022-12-23T11:08:32.967Z,16.80
2022-12-23T11:11:01.358Z,17.20
2022-12-23T11:13:36.657Z,18.02
2022-12-23T11:16:25.891Z,18.70
2022-12-23T11:19:00.286Z,17.80
2022-12-23T11:21:29.062Z,18.48
2022-12-23T11:24:17.929Z,20.02
2022-12-23T11:26:50.501Z,21.88
2022-12-23T11:29:25.075Z,22.95
2022-12-23T11:31:52.251Z,23.05
2022-12-23T11:34:22.552Z,27.17
2022-12-23T11:37:01.751Z,23.90
2022-12-23T11:39:36.436Z,25.35
2022-12-23T11:42:15.700Z,24.48
2022-12-23T11:44:48.885Z,24.42
2022-12-23T11:47:26.604Z,24.95
2022-12-23T11:50:05.357Z,25.38
2022-12-23T11:52:33.454Z,25.30
2022-12-23T11:55:05.031Z,25.27
2022-12-23T11:57:49.117Z,25.42
2022-12-23T12:00:40.037Z,26.08
2022-12-23T12:03:08.195Z,23.95
2022-12-23T12:05:48.783Z,24.77
2022-12-23T12:08:21.916Z,25.70
2022-12-23T12:10:52.872Z,25.77
2022-12-23T12:13:29.077Z,24.30
2022-12-23T12:16:31.058Z,24.75
2022-12-23T12:19:05.094Z,22.83
2022-12-23T12:21:37.769Z,22.25
2022-12-23T12:24:19.532Z,21.52
2022-12-23T12:26:51.590Z,22.33
2022-12-23T12:29:39.894Z,21.67
2022-12-23T12:32:30.781Z,21.08
2022-12-23T12:35:03.361Z,20.70
2022-12-23T12:37:40.909Z,18.98
2022-12-23T12:40:41.400Z,20.33
2022-12-23T12:43:27.737Z,20.15
2022-12-23T12:46:20.634Z,19.10
2022-12-23T12:49:02.464Z,19.95
2022-12-23T12:51:43.353Z,19.65
2022-12-23T12:54:22.484Z,18.75
2022-12-23T12:56:53.373Z,18.40
2022-12-23T12:59:28.105Z,20.27
2022-12-23T13:02:11.144Z,18.58
2022-12-23T13:04:48.165Z,18.27
2022-12-23T13:07:26.517Z,18.75
2022-12-23T13:09:56.125Z,17.67
2022-12-23T13:12:38.148Z,18.25
2022-12-23T13:15:10.366Z,18.80
2022-12-23T13:18:07.396Z,18.52
2022-12-23T13:20:51.303Z,19.75
2022-12-23T13:23:43.428Z,17.65
2022-12-23T13:26:29.426Z,16.58
2022-12-23T13:28:59.269Z,17.65
2022-12-23T13:31:47.295Z,17.10
2022-12-23T13:34:26.361Z,17.52
2022-12-23T13:37:20.526Z,18.65
2022-12-23T13:39:53.015Z,17.02
2022-12-23T13:42:29.958Z,17.73
2022-12-23T13:44:58.116Z,16.70
2022-12-23T13:47:35.629Z,17.00
2022-12-23T13:50:16.369Z,16.88
2022-12-23T13:53:01.958Z,16.15
2022-12-23T13:56:07.088Z,16.13
2022-12-23T13:58:34.140Z,16.15
2022-12-23T14:01:10.116Z,16.48
2022-12-23T14:03:39.585Z,15.68
2022-12-23T14:06:32.721Z,15.50
2022-12-23T14:08:59.505Z,15.18
2022-12-23T14:11:30.054Z,15.68
2022-12-23T14:14:00.453Z,16.63
2022-12-23T14:17:00.851Z,15.82
2022-12-23T14:19:42.625Z,17.23
2022-12-23T14:22:37.119Z,16.90
2022-12-23T14:25:28.693Z,16.27
2022-12-23T14:27:58.320Z,16.67
2022-12-23T14:30:40.208Z,17.15
2022-12-23T14:33:32.753Z,17.55
2022-12-23T14:36:26.630Z,16.30
2022-12-23T14:39:11.710Z,15.98
2022-12-23T14:42:05.131Z,15.55
2022-12-23T14:44:36.144Z,19.08
2022-12-23T14:47:23.764Z,19.20
2022-12-23T14:49:50.647Z,20.83
2022-12-23T14:52:40.791Z,19.23
2022-12-23T14:55:31.997Z,19.10
2022-12-23T14:58:17.461Z,16.20
2022-12-23T15:00:55.205Z,16.25
2022-12-23T15:03:22.953Z,18.60
2022-12-23T15:05:51.072Z,21.65
2022-12-23T15:08:32.127Z,19.73
2022-12-23T15:10:59.834Z,16.77
2022-12-23T15:13:28.838Z,15.60
2022-12-23T15:16:01.342Z,15.77
2022-12-23T15:18:29.015Z,13.88
2022-12-23T15:21:00.311Z,13.48
2022-12-23T15:23:27.178Z,14.95
2022-12-23T15:25:58.751Z,15.07
2022-12-23T15:28:38.191Z,17.33
2022-12-23T15:31:06.524Z,16.95
2022-12-23T15:36:32.124Z,17.08
2022-12-23T15:39:00.745Z,16.27
2022-12-23T15:41:28.358Z,16.20
2022-12-23T15:44:01.948Z,15.90
2022-12-23T15:46:31.661Z,16.35
2022-12-23T15:48:58.556Z,15.02
2022-12-23T15:51:42.914Z,15.63
2022-12-23T15:54:26.594Z,14.73
2022-12-23T15:56:54.050Z,15.75
2022-12-23T15:59:25.464Z,16.00
2022-12-23T16:01:53.310Z,16.03
2022-12-23T16:04:25.238Z,17.55
2022-12-23T16:06:52.693Z,14.18
2022-12-23T16:09:19.443Z,13.32
2022-12-23T16:12:00.631Z,13.05
2022-12-23T16:14:30.885Z,13.48
2022-12-23T16:17:09.903Z,14.75
2022-12-23T16:19:48.795Z,14.20
2022-12-23T16:22:29.051Z,14.27
2022-12-23T16:25:15.302Z,17.08
2022-12-23T16:28:14.028Z,18.85
2022-12-23T16:30:42.687Z,19.73
2022-12-23T16:33:24.404Z,19.05
2022-12-23T16:35:53.249Z,21.07
2022-12-23T16:38:25.528Z,19.05
2022-12-23T16:40:56.576Z,22.30
2022-12-23T16:43:24.791Z,21.98
2022-12-23T16:45:55.569Z,21.73
2022-12-23T16:48:38.347Z,18.65
2022-12-23T16:51:12.614Z,19.48
2022-12-23T16:53:39.494Z,17.33
2022-12-23T16:56:17.362Z,16.27
2022-12-23T16:58:44.810Z,17.75
2022-12-23T17:01:27.086Z,19.02
2022-12-23T17:03:55.846Z,21.90
2022-12-23T17:06:23.499Z,23.20
2022-12-23T17:08:53.831Z,20.27
2022-12-23T17:11:36.188Z,17.52
2022-12-23T17:14:07.873Z,16.23
2022-12-23T17:16:37.296Z,13.63
2022-12-23T17:19:05.482Z,17.45
2022-12-23T17:21:36.638Z,16.00
2022-12-23T17:24:09.483Z,11.32
2022-12-23T17:29:04.983Z,11.50
2022-12-23T17:31:33.944Z,11.68
2022-12-23T17:34:01.854Z,12.43
2022-12-23T17:36:29.374Z,11.27
2022-12-23T17:38:56.202Z,13.48
2022-12-23T17:41:31.389Z,15.75
2022-12-23T17:43:59.198Z,6.45
2022-12-23T17:46:27.001Z,8.25
2022-12-23T17:48:53.807Z,7.82
2022-12-23T17:51:22.556Z,8.13
2022-12-23T17:53:56.837Z,7.10
2022-12-23T17:56:24.955Z,12.23
2022-12-23T17:58:52.082Z,8.10
2022-12-23T18:01:24.235Z,10.45
2022-12-23T18:03:51.117Z,8.50
2022-12-23T18:06:19.962Z,6.32
2022-12-23T18:08:47.139Z,8.55
2022-12-23T18:11:32.619Z,9.43
2022-12-23T18:14:00.086Z,6.40
2022-12-23T18:16:27.116Z,7.97
2022-12-23T18:18:53.920Z,6.07
2022-12-23T18:21:24.380Z,5.60
2022-12-23T18:23:53.231Z,8.50
2022-12-23T18:26:20.063Z,9.48
2022-12-23T18:28:47.075Z,6.85
2022-12-23T18:31:17.298Z,7.05
2022-12-23T18:33:44.283Z,7.72
2022-12-23T18:36:29.217Z,9.00
2022-12-23T18:38:57.270Z,7.93
2022-12-23T18:41:25.801Z,9.95
2022-12-23T18:43:53.633Z,6.65
2022-12-23T18:46:21.162Z,5.57
2022-12-23T18:48:48.480Z,9.43
2022-12-23T18:51:17.499Z,5.30
2022-12-23T18:53:45.056Z,5.80
2022-12-23T18:56:16.327Z,7.03
2022-12-23T18:58:43.229Z,8.70
2022-12-23T19:01:14.803Z,8.40
2022-12-23T19:03:42.492Z,5.28
2022-12-23T19:06:13.323Z,9.30
2022-12-23T19:08:41.399Z,7.40
2022-12-23T19:11:17.918Z,5.50
2022-12-23T19:13:45.436Z,6.35
2022-12-23T19:16:17.974Z,6.13
2022-12-23T19:18:45.665Z,5.80
2022-12-23T19:21:12.820Z,7.75
2022-12-23T19:23:41.251Z,5.13
2022-12-23T19:26:13.726Z,9.00
2022-12-23T19:28:41.756Z,5.85
2022-12-23T19:31:13.739Z,5.82
2022-12-23T19:33:42.491Z,5.75
2022-12-23T19:36:19.076Z,6.10
2022-12-23T19:38:46.217Z,7.47
2022-12-23T19:41:13.107Z,5.85
2022-12-23T19:43:42.760Z,9.65
2022-12-23T19:46:11.155Z,7.45
2022-12-23T19:48:38.095Z,6.45
2022-12-23T19:51:14.061Z,8.70
2022-12-23T19:53:42.068Z,5.40
2022-12-23T19:56:13.883Z,6.10
2022-12-23T19:58:43.549Z,6.03
2022-12-23T20:01:12.489Z,6.45
2022-12-23T20:03:40.246Z,8.45
2022-12-23T20:06:08.632Z,5.63
2022-12-23T20:08:35.512Z,5.00
2022-12-23T20:11:11.019Z,7.72
2022-12-23T20:13:38.569Z,6.85
2022-12-23T20:16:06.790Z,6.93
2022-12-23T20:18:34.258Z,6.47
2022-12-23T20:21:01.457Z,7.20
2022-12-23T20:23:29.122Z,5.43
2022-12-23T20:25:56.216Z,6.47
2022-12-23T20:28:23.261Z,6.07
2022-12-23T20:31:08.979Z,6.15
2022-12-23T20:33:37.148Z,7.05
2022-12-23T20:36:06.413Z,5.85
2022-12-23T20:38:39.016Z,9.35
2022-12-23T20:41:07.531Z,6.43
2022-12-23T20:43:34.806Z,7.68
2022-12-23T20:46:06.061Z,6.90
2022-12-23T20:48:34.567Z,6.95
2022-12-23T20:51:10.940Z,4.28
2022-12-23T20:53:38.059Z,4.50
2022-12-23T20:56:07.220Z,3.72
2022-12-23T20:58:54.493Z,5.32
2022-12-23T21:01:26.159Z,5.75
2022-12-23T21:03:53.284Z,7.35
2022-12-23T21:06:20.765Z,4.43
2022-12-23T21:08:47.732Z,5.70
2022-12-23T21:11:14.958Z,4.78
2022-12-23T21:13:43.793Z,5.32
2022-12-23T21:16:12.973Z,6.60
2022-12-23T21:18:41.990Z,7.60
2022-12-23T21:21:09.137Z,5.55
2022-12-23T21:23:41.470Z,5.22
2022-12-23T21:28:37.183Z,5.95
2022-12-23T21:31:04.625Z,3.67
2022-12-23T21:33:31.652Z,5.05
2022-12-23T21:35:58.546Z,8.20
2022-12-23T21:38:25.281Z,7.28
2022-12-23T21:40:58.370Z,7.20
2022-12-23T21:43:25.068Z,4.28
2022-12-23T21:45:59.786Z,4.80
2022-12-23T21:48:27.605Z,6.00
2022-12-23T21:50:54.517Z,9.75
2022-12-23T21:53:21.553Z,5.45
2022-12-23T21:55:48.488Z,6.05
2022-12-23T21:58:15.280Z,8.65
2022-12-23T22:00:47.944Z,5.50
2022-12-23T22:03:14.752Z,4.60
2022-12-23T22:05:41.799Z,4.38
2022-12-23T22:08:08.695Z,4.97
2022-12-23T22:10:38.457Z,5.55
2022-12-23T22:13:05.800Z,6.10
2022-12-23T22:15:32.654Z,5.95
2022-12-23T22:17:59.426Z,5.82
2022-12-23T22:20:26.399Z,7.25
2022-12-23T22:22:54.418Z,8.27
2022-12-23T22:25:21.817Z,5.63
2022-12-23T22:27:48.568Z,6.75
2022-12-23T22:30:15.532Z,5.10
2022-12-23T22:32:42.789Z,5.90
2022-12-23T22:35:10.223Z,8.00
2022-12-23T22:37:37.514Z,6.80
2022-12-23T22:40:04.631Z,5.00
2022-12-23T22:42:31.455Z,4.88
2022-12-23T22:44:58.306Z,6.15
2022-12-23T22:47:25.397Z,5.40
2022-12-23T22:49:52.252Z,5.03
2022-12-23T22:52:26.747Z,7.57
2022-12-23T22:54:53.555Z,6.53
2022-12-23T22:57:20.288Z,5.22
2022-12-23T22:59:47.141Z,4.32
2022-12-23T23:02:13.946Z,5.60
2022-12-23T23:04:40.771Z,5.40
2022-12-23T23:07:08.232Z,5.03
2022-12-23T23:09:35.035Z,6.57
2022-12-23T23:12:01.812Z,6.88
2022-12-23T23:14:48.556Z,5.65
2022-12-23T23:17:15.414Z,8.25
2022-12-23T23:19:42.210Z,6.13
2022-12-23T23:22:08.898Z,5.55
2022-12-23T23:24:35.586Z,5.18
2022-12-23T23:27:02.546Z,6.47
2022-12-23T23:29:29.373Z,3.80
2022-12-23T23:31:56.198Z,3.90
2022-12-23T23:34:23.006Z,7.55
2022-12-23T23:36:49.899Z,5.03
2022-12-23T23:39:16.855Z,6.63
2022-12-23T23:41:43.693Z,6.47
2022-12-23T23:44:11.303Z,5.35
2022-12-23T23:46:38.893Z,6.85
2022-12-23T23:49:06.921Z,7.78
2022-12-23T23:51:33.933Z,8.25
2022-12-23T23:54:00.719Z,6.57
2022-12-23T23:56:32.337Z,6.72
2022-12-23T23:59:02.853Z,9.27
